Time;durP1;ratioP1;P1;durP2;ratioP2;P2;SDS_P1;SDS_P2;PMS_P1;PMS_P2;Temp;Humidity;BMP_temperature;BMP_pressure;BME280_temperature;BME280_humidity;BME280_pressure;Samples;Min_cycle;Max_cycle;Signal;HPM_P1;HPM_P2
2021/01/09 00:02:52;;;;;;;21.73;11.20;;;-1.50;99.90;;;;;;8275769;28;20056;-71
2021/01/09 00:06:52;;;;;;;22.25;11.20;;;-1.00;99.90;;;;;;8293412;28;20034;-71
2021/01/09 00:10:53;;;;;;;20.20;10.30;;;-0.80;99.90;;;;;;8275006;28;20022;-72
2021/01/09 00:14:53;;;;;;;22.48;10.82;;;-0.80;99.90;;;;;;8275649;28;20052;-72
2021/01/09 00:18:54;;;;;;;19.55;10.02;;;-1.10;99.90;;;;;;8292921;28;20060;-71
2021/01/09 00:22:54;;;;;;;18.20;10.10;;;-1.00;99.90;;;;;;8293115;28;20678;-71
2021/01/09 00:26:55;;;;;;;24.55;11.20;;;-0.80;99.90;;;;;;8275267;28;20026;-71
2021/01/09 00:30:55;;;;;;;22.38;11.48;;;-0.70;99.90;;;;;;8292428;28;20138;-72
2021/01/09 00:34:56;;;;;;;23.70;11.50;;;-0.70;99.90;;;;;;8275413;28;20037;-72
2021/01/09 00:38:56;;;;;;;23.67;11.65;;;-1.00;99.90;;;;;;8292725;28;20049;-72
2021/01/09 00:42:57;;;;;;;26.10;13.10;;;-1.30;99.90;;;;;;8291925;28;20484;-72
2021/01/09 00:46:58;;;;;;;26.90;12.63;;;-1.20;99.90;;;;;;8274837;28;20026;-72
2021/01/09 00:50:59;;;;;;;25.40;12.13;;;-1.30;99.90;;;;;;8292178;28;20026;-72
2021/01/09 00:54:59;;;;;;;22.13;11.90;;;-1.10;99.90;;;;;;8274835;28;20054;-71
2021/01/09 00:59:00;;;;;;;25.80;12.57;;;-1.00;99.90;;;;;;8291978;28;20030;-71
2021/01/09 01:03:00;;;;;;;23.95;12.32;;;-0.90;99.90;;;;;;8292253;28;20034;-71
2021/01/09 01:07:01;;;;;;;22.27;11.25;;;-1.00;99.90;;;;;;8291112;28;20079;-72
2021/01/09 01:11:04;;;;;;;25.27;13.27;;;-1.00;99.90;;;;;;8274118;28;20153;-71
2021/01/09 01:15:05;;;;;;;25.20;12.73;;;-1.20;99.90;;;;;;8273374;28;20395;-72
2021/01/09 01:19:05;;;;;;;23.17;12.32;;;-1.20;99.90;;;;;;8291539;28;20041;-71
2021/01/09 01:23:06;;;;;;;26.33;13.27;;;-1.30;99.90;;;;;;8291691;28;20037;-72
2021/01/09 01:27:06;;;;;;;26.05;13.25;;;-1.50;99.90;;;;;;8291349;28;20029;-72
2021/01/09 01:31:08;;;;;;;23.35;12.73;;;-1.60;99.90;;;;;;8291294;28;20026;-72
2021/01/09 01:35:09;;;;;;;25.52;12.73;;;-1.50;99.90;;;;;;8291483;28;20110;-72
2021/01/09 01:39:09;;;;;;;26.75;13.55;;;-1.40;99.90;;;;;;8291247;28;20026;-72
2021/01/09 01:43:11;;;;;;;24.30;12.50;;;-1.10;99.90;;;;;;8291504;28;20541;-72
2021/01/09 01:47:17;;;;;;;25.83;12.25;;;-1.00;99.90;;;;;;8290670;28;20029;-72
2021/01/09 01:51:18;;;;;;;26.13;12.38;;;-0.90;99.90;;;;;;8273661;28;20026;-72
2021/01/09 01:55:19;;;;;;;24.23;12.52;;;-0.90;99.90;;;;;;8291089;28;20025;-72
2021/01/09 01:59:19;;;;;;;20.10;11.23;;;-1.00;99.90;;;;;;8290796;28;20061;-72
2021/01/09 02:03:21;;;;;;;23.88;12.27;;;-1.20;99.90;;;;;;8291583;28;20037;-72
2021/01/09 02:07:27;;;;;;;25.30;11.35;;;-1.40;99.90;;;;;;8290990;28;20053;-72
2021/01/09 02:11:41;;;;;;;24.05;11.73;;;-1.10;99.90;;;;;;8290756;28;20044;-72
2021/01/09 02:15:42;;;;;;;27.17;13.05;;;-1.00;99.90;;;;;;8290799;28;20033;-72
2021/01/09 02:19:44;;;;;;;25.85;12.95;;;-1.00;99.90;;;;;;8295794;28;20104;-72
2021/01/09 02:23:44;;;;;;;25.52;12.98;;;-1.10;99.90;;;;;;8296475;28;20242;-72
2021/01/09 02:27:45;;;;;;;24.42;12.07;;;-1.20;99.90;;;;;;8296098;28;20026;-72
2021/01/09 02:31:52;;;;;;;24.75;11.82;;;-1.00;99.90;;;;;;8296125;28;20025;-71
2021/01/09 02:35:53;;;;;;;28.85;12.85;;;-1.30;99.90;;;;;;8278698;28;20049;-72
2021/01/09 02:39:54;;;;;;;26.75;13.18;;;-1.20;99.90;;;;;;8278019;28;20038;-72
2021/01/09 02:44:05;;;;;;;24.50;12.82;;;-1.10;99.90;;;;;;8278447;28;20051;-73
2021/01/09 02:48:07;;;;;;;23.45;11.80;;;-1.40;99.90;;;;;;8295775;28;20030;-71
2021/01/09 02:52:07;;;;;;;22.60;12.07;;;-1.20;99.90;;;;;;8317418;28;20029;-72
2021/01/09 02:56:07;;;;;;;26.30;12.38;;;-1.20;99.90;;;;;;8328273;28;20652;-71
2021/01/09 03:00:09;;;;;;;22.58;12.30;;;-1.30;99.90;;;;;;8306977;28;20026;-72
2021/01/09 03:04:09;;;;;;;25.88;13.70;;;-1.20;99.90;;;;;;8277353;28;20084;-72
2021/01/09 03:08:10;;;;;;;30.27;14.55;;;-1.10;99.90;;;;;;8295099;28;20080;-72
2021/01/09 03:12:10;;;;;;;27.25;13.30;;;-1.20;99.90;;;;;;8294960;28;20034;-73
2021/01/09 03:16:11;;;;;;;29.38;13.45;;;-1.40;99.90;;;;;;8294879;28;20030;-72
2021/01/09 03:20:12;;;;;;;28.75;13.63;;;-1.20;99.90;;;;;;8294589;28;20026;-72
2021/01/09 03:24:12;;;;;;;26.42;12.82;;;-1.10;99.90;;;;;;8294069;28;20033;-72
2021/01/09 03:28:13;;;;;;;23.50;11.73;;;-0.90;99.90;;;;;;8276400;28;20022;-71
2021/01/09 03:32:14;;;;;;;29.30;13.68;;;-1.00;99.90;;;;;;8276842;28;20018;-71
2021/01/09 03:36:14;;;;;;;25.85;12.10;;;-0.90;99.90;;;;;;8294329;28;20034;-72
2021/01/09 03:40:15;;;;;;;22.60;12.18;;;-1.00;99.90;;;;;;8293889;28;20035;-71
2021/01/09 03:44:15;;;;;;;24.45;12.80;;;-1.00;99.90;;;;;;8294199;28;20113;-72
2021/01/09 03:48:16;;;;;;;27.13;11.77;;;-1.20;99.90;;;;;;8293954;28;20037;-71
2021/01/09 03:52:16;;;;;;;24.33;12.80;;;-1.40;99.90;;;;;;8276164;28;20113;-74
2021/01/09 03:56:17;;;;;;;29.80;13.82;;;-1.40;99.90;;;;;;8275308;28;20049;-72
2021/01/09 04:00:18;;;;;;;20.73;10.80;;;-1.30;99.90;;;;;;8293182;28;20030;-71
2021/01/09 04:04:18;;;;;;;27.23;13.68;;;-1.50;99.90;;;;;;8293689;28;20033;-71
2021/01/09 04:08:19;;;;;;;27.83;14.10;;;-1.60;99.90;;;;;;8293363;28;20112;-71
2021/01/09 04:12:19;;;;;;;29.50;14.45;;;-1.40;99.90;;;;;;8275945;28;20392;-73
2021/01/09 04:16:20;;;;;;;32.03;13.80;;;-1.30;99.90;;;;;;8293172;28;20120;-71
2021/01/09 04:20:20;;;;;;;29.38;13.18;;;-1.30;99.90;;;;;;8292907;28;20029;-71
2021/01/09 04:24:23;;;;;;;27.38;12.43;;;-1.40;99.90;;;;;;8293204;28;20524;-72
2021/01/09 04:28:23;;;;;;;25.20;13.32;;;-1.70;99.90;;;;;;8292508;28;20029;-72
2021/01/09 04:32:24;;;;;;;24.65;12.18;;;-1.70;99.90;;;;;;8293010;28;20022;-71
2021/01/09 04:36:24;;;;;;;30.63;14.32;;;-1.40;99.90;;;;;;8275284;28;20395;-72
2021/01/09 04:40:25;;;;;;;27.08;12.93;;;-1.40;99.90;;;;;;8292725;28;20438;-72
2021/01/09 04:44:25;;;;;;;25.17;13.15;;;-1.50;99.90;;;;;;8293022;28;20033;-72
2021/01/09 04:48:26;;;;;;;25.23;13.73;;;-1.30;99.90;;;;;;8292716;28;20101;-72
2021/01/09 04:52:29;;;;;;;26.95;13.15;;;-1.20;99.90;;;;;;8292577;28;20029;-72
2021/01/09 04:56:29;;;;;;;26.02;13.05;;;-1.20;99.90;;;;;;8292466;28;20428;-72
2021/01/09 05:00:30;;;;;;;27.35;13.15;;;-1.60;99.90;;;;;;8273482;28;20104;-72
2021/01/09 05:04:31;;;;;;;27.15;13.38;;;-1.80;99.90;;;;;;8291399;28;20030;-72
2021/01/09 05:08:31;;;;;;;26.27;13.73;;;-2.00;99.90;;;;;;8292384;28;20026;-72
2021/01/09 05:12:34;;;;;;;30.08;13.98;;;-1.80;99.90;;;;;;8274625;28;20018;-72
2021/01/09 05:16:35;;;;;;;27.40;13.60;;;-1.90;99.90;;;;;;8292126;28;20029;-72
2021/01/09 05:20:36;;;;;;;32.17;14.25;;;-2.00;99.90;;;;;;8274591;28;20053;-72
2021/01/09 05:24:36;;;;;;;26.73;13.65;;;-1.70;99.90;;;;;;8274400;28;20034;-72
2021/01/09 05:28:39;;;;;;;29.95;14.02;;;-1.40;99.90;;;;;;8274128;28;20037;-72
2021/01/09 05:32:39;;;;;;;25.85;13.25;;;-1.50;99.90;;;;;;8274296;28;20018;-72
2021/01/09 05:36:40;;;;;;;27.38;12.68;;;-1.70;99.90;;;;;;8291544;28;20028;-72
2021/01/09 05:40:40;;;;;;;26.23;12.75;;;-1.90;99.90;;;;;;8291485;28;20022;-72
2021/01/09 05:44:41;;;;;;;27.27;14.85;;;-2.00;99.90;;;;;;8291491;28;20037;-72
2021/01/09 05:48:42;;;;;;;28.10;13.38;;;-1.90;99.90;;;;;;8291252;28;20026;-72
2021/01/09 05:52:42;;;;;;;25.15;13.20;;;-2.00;99.90;;;;;;8294106;28;20103;-71
2021/01/09 05:56:43;;;;;;;32.15;15.30;;;-2.10;99.90;;;;;;8297197;28;20058;-72
2021/01/09 06:00:46;;;;;;;29.45;14.65;;;-2.40;99.90;;;;;;8297232;28;20075;-71
2021/01/09 06:04:48;;;;;;;29.55;13.68;;;-2.90;99.90;;;;;;8296347;28;20029;-72
2021/01/09 06:08:59;;;;;;;36.65;16.40;;;-3.10;99.90;;;;;;8296687;28;20033;-72
2021/01/09 06:13:00;;;;;;;31.30;14.55;;;-3.20;99.90;;;;;;8279492;28;20058;-72
2021/01/09 06:17:03;;;;;;;30.13;13.13;;;-3.20;99.90;;;;;;8296951;28;20641;-74
2021/01/09 06:21:04;;;;;;;32.42;14.48;;;-2.90;99.90;;;;;;8296291;28;20030;-72
2021/01/09 06:25:07;;;;;;;28.27;14.52;;;-3.40;99.90;;;;;;8296686;28;20072;-72
2021/01/09 06:29:25;;;;;;;30.83;15.90;;;-3.50;99.90;;;;;;8296325;28;20033;-72
2021/01/09 06:33:30;;;;;;;34.03;15.63;;;-3.80;99.90;;;;;;8296573;28;20594;-72
2021/01/09 06:37:30;;;;;;;29.35;14.10;;;-4.00;99.90;;;;;;8295456;28;20484;-72
2021/01/09 06:41:33;;;;;;;29.02;12.55;;;-4.10;99.90;;;;;;8295555;28;20032;-71
2021/01/09 06:45:34;;;;;;;28.98;12.90;;;-3.70;99.90;;;;;;8295412;28;20100;-71
2021/01/09 06:49:34;;;;;;;28.58;13.55;;;-3.90;99.90;;;;;;8277316;28;20017;-72
2021/01/09 06:53:35;;;;;;;30.38;15.43;;;-4.30;99.90;;;;;;8277561;28;20026;-72
2021/01/09 06:57:37;;;;;;;28.23;14.05;;;-4.20;99.90;;;;;;8277317;28;20022;-73
2021/01/09 07:01:38;;;;;;;23.98;12.40;;;-4.30;99.90;;;;;;8277754;28;20113;-72
2021/01/09 07:05:46;;;;;;;22.33;8.85;;;-4.20;99.90;;;;;;8294814;28;20025;-72
2021/01/09 07:09:49;;;;;;;24.58;11.63;;;-4.30;99.90;;;;;;8291559;28;20030;-72
2021/01/09 07:14:12;;;;;;;30.02;14.05;;;-4.70;99.90;;;;;;8276251;28;20061;-73
2021/01/09 07:18:12;;;;;;;26.98;14.07;;;-4.90;99.90;;;;;;8292400;28;20109;-72
2021/01/09 07:22:18;;;;;;;31.10;13.98;;;-4.80;99.90;;;;;;8292590;28;20029;-72
2021/01/09 07:26:20;;;;;;;31.63;13.80;;;-4.70;99.90;;;;;;8291919;28;20033;-73
2021/01/09 07:30:22;;;;;;;27.45;12.90;;;-4.80;99.90;;;;;;8275771;28;20108;-72
2021/01/09 07:34:26;;;;;;;27.60;12.63;;;-4.50;99.90;;;;;;8292423;28;20084;-65
2021/01/09 07:38:27;;;;;;;25.45;11.88;;;-4.30;99.90;;;;;;8291862;28;20040;-67
2021/01/09 07:42:31;;;;;;;25.33;12.32;;;-4.60;99.90;;;;;;8289789;28;20080;-67
2021/01/09 07:46:32;;;;;;;24.42;11.43;;;-4.50;99.90;;;;;;8289430;28;20033;-67
2021/01/09 07:50:42;;;;;;;28.25;13.75;;;-4.50;99.90;;;;;;8270809;28;20029;-73
2021/01/09 07:54:44;;;;;;;27.80;11.98;;;-4.10;99.90;;;;;;8275783;28;20021;-73
2021/01/09 07:58:45;;;;;;;36.78;17.17;;;-3.60;99.90;;;;;;8291827;28;20527;-73
2021/01/09 08:02:46;;;;;;;44.15;19.35;;;-3.70;99.90;;;;;;8289677;28;20109;-73
2021/01/09 08:06:47;;;;;;;43.40;22.55;;;-3.40;99.90;;;;;;8284704;28;20052;-71
2021/01/09 08:10:48;;;;;;;43.00;20.33;;;-2.80;99.90;;;;;;8266062;28;20033;-70
2021/01/09 08:14:48;;;;;;;32.47;16.67;;;-2.40;99.90;;;;;;8247211;28;542247;-73
2021/01/09 08:18:49;;;;;;;32.28;13.98;;;-2.10;99.90;;;;;;8286547;28;20021;-73
2021/01/09 08:22:58;;;;;;;31.58;14.02;;;-2.00;99.90;;;;;;8307580;28;20468;-73
2021/01/09 08:26:58;;;;;;;24.58;12.38;;;-1.80;99.90;;;;;;8293482;28;20121;-73
2021/01/09 08:30:59;;;;;;;32.38;15.80;;;-1.80;99.90;;;;;;8273851;28;20033;-73
2021/01/09 08:35:00;;;;;;;28.90;13.23;;;-1.70;99.90;;;;;;8267899;28;20040;-70
2021/01/09 08:39:06;;;;;;;29.63;14.48;;;-1.30;99.90;;;;;;8288961;28;20030;-70
2021/01/09 08:43:09;;;;;;;30.30;14.85;;;-1.10;99.90;;;;;;8289938;28;20030;-69
2021/01/09 08:47:10;;;;;;;25.58;14.52;;;-0.90;99.90;;;;;;8287238;28;20026;-69
2021/01/09 08:51:13;;;;;;;32.67;16.42;;;-0.70;99.90;;;;;;8284394;28;20044;-67
2021/01/09 08:55:15;;;;;;;35.65;17.98;;;-0.70;99.90;;;;;;8287129;28;20037;-69
2021/01/09 08:59:17;;;;;;;31.73;16.13;;;-0.50;99.90;;;;;;8288806;28;20492;-69
2021/01/09 09:03:19;;;;;;;34.13;17.23;;;0.10;99.90;;;;;;8273561;28;20057;-71
2021/01/09 09:07:21;;;;;;;35.45;18.15;;;0.70;99.90;;;;;;8271880;28;20046;-71
2021/01/09 09:11:25;;;;;;;34.13;17.80;;;0.70;99.90;;;;;;8288491;28;20087;-68
2021/01/09 09:15:29;;;;;;;41.67;21.77;;;1.00;99.90;;;;;;8301890;28;20029;-67
2021/01/09 09:19:38;;;;;;;40.03;18.80;;;1.30;99.90;;;;;;8289910;28;20038;-69
2021/01/09 09:23:39;;;;;;;27.85;16.00;;;1.50;99.90;;;;;;8288233;28;20648;-68
2021/01/09 09:27:39;;;;;;;29.63;16.27;;;1.30;99.90;;;;;;8293421;28;20026;-69
2021/01/09 09:31:41;;;;;;;26.90;14.27;;;1.30;99.90;;;;;;8292861;28;20034;-68
2021/01/09 09:35:42;;;;;;;25.00;13.73;;;1.90;99.90;;;;;;8296290;28;20045;-68
2021/01/09 09:39:43;;;;;;;39.40;16.90;;;2.30;99.90;;;;;;8292614;28;20030;-68
2021/01/09 09:43:54;;;;;;;57.97;23.83;;;2.70;99.90;;;;;;8295117;28;20033;-69
2021/01/09 09:47:58;;;;;;;45.47;18.30;;;2.90;99.90;;;;;;8294721;28;20028;-69
2021/01/09 09:51:58;;;;;;;24.17;13.32;;;3.40;99.90;;;;;;8296378;28;20443;-68
2021/01/09 09:56:17;;;;;;;21.13;12.65;;;4.40;99.90;;;;;;8291635;28;20038;-68
2021/01/09 10:00:22;;;;;;;22.55;13.02;;;4.70;99.90;;;;;;8290557;28;20041;-68
2021/01/09 10:04:23;;;;;;;22.38;11.88;;;4.80;99.90;;;;;;8292169;28;20484;-68
2021/01/09 10:08:25;;;;;;;17.70;10.50;;;4.40;99.90;;;;;;8275241;28;20018;-68
2021/01/09 10:12:26;;;;;;;15.73;10.30;;;4.20;99.90;;;;;;8294013;28;20033;-71
2021/01/09 10:16:29;;;;;;;15.82;9.93;;;4.00;99.90;;;;;;8292229;28;20552;-70
2021/01/09 10:20:30;;;;;;;18.88;11.02;;;3.90;99.90;;;;;;8276983;28;20030;-71
2021/01/09 10:24:30;;;;;;;17.73;10.75;;;4.00;99.90;;;;;;8296021;28;20645;-70
2021/01/09 10:28:31;;;;;;;15.57;9.63;;;4.50;99.90;;;;;;8293505;28;20657;-70
2021/01/09 10:32:31;;;;;;;19.13;11.07;;;4.50;99.90;;;;;;8274369;28;20034;-72
2021/01/09 10:36:37;;;;;;;19.17;10.63;;;4.30;99.90;;;;;;8290268;28;20022;-72
2021/01/09 10:40:38;;;;;;;18.23;9.88;;;4.50;99.90;;;;;;8289929;28;20053;-70
2021/01/09 10:44:38;;;;;;;18.75;11.07;;;5.10;99.90;;;;;;8291386;28;20546;-71
2021/01/09 10:48:39;;;;;;;18.35;10.85;;;4.80;99.90;;;;;;8295580;28;20111;-71
2021/01/09 10:52:40;;;;;;;19.85;11.43;;;4.40;99.90;;;;;;8295481;28;20026;-71
2021/01/09 10:56:47;;;;;;;19.73;11.57;;;4.00;99.90;;;;;;8295730;28;20044;-71
2021/01/09 11:00:47;;;;;;;17.52;11.38;;;3.80;99.90;;;;;;8294498;28;20436;-72
2021/01/09 11:04:48;;;;;;;20.13;11.60;;;4.00;99.90;;;;;;8295404;28;20152;-71
2021/01/09 11:08:50;;;;;;;22.73;12.75;;;4.20;99.90;;;;;;8292866;28;20034;-72
2021/01/09 11:12:50;;;;;;;24.45;14.13;;;4.50;99.90;;;;;;8294542;28;20034;-71
2021/01/09 11:16:59;;;;;;;21.55;12.93;;;4.40;99.90;;;;;;8294445;28;20099;-71
2021/01/09 11:20:59;;;;;;;21.02;12.48;;;4.10;99.90;;;;;;8276801;28;20026;-72
2021/01/09 11:25:00;;;;;;;21.13;12.50;;;4.00;99.90;;;;;;8293631;28;20030;-72
2021/01/09 11:29:00;;;;;;;23.40;12.20;;;4.50;99.90;;;;;;8276124;28;20022;-72
2021/01/09 11:33:01;;;;;;;22.33;12.57;;;5.20;99.90;;;;;;8282625;28;20112;-71
2021/01/09 11:37:02;;;;;;;20.48;12.50;;;5.90;99.90;;;;;;8293772;28;20545;-71
2021/01/09 11:41:03;;;;;;;20.05;12.15;;;5.30;99.90;;;;;;8293849;28;20429;-71
2021/01/09 11:45:04;;;;;;;21.55;12.98;;;4.80;99.90;;;;;;8294865;28;20026;-71
2021/01/09 11:49:05;;;;;;;21.80;12.95;;;4.70;99.90;;;;;;8292353;28;20488;-71
2021/01/09 11:53:06;;;;;;;20.55;12.57;;;4.70;99.90;;;;;;8291848;28;20030;-72
2021/01/09 11:57:06;;;;;;;22.63;12.90;;;4.60;99.90;;;;;;8285783;28;20101;-71
2021/01/09 12:01:07;;;;;;;22.00;12.85;;;4.50;99.90;;;;;;8290597;28;20030;-72
2021/01/09 12:05:08;;;;;;;18.50;12.18;;;4.30;99.90;;;;;;8287569;28;20030;-71
2021/01/09 12:09:09;;;;;;;20.55;12.77;;;4.30;99.90;;;;;;8289693;28;20491;-72
2021/01/09 12:13:10;;;;;;;23.10;12.32;;;4.20;99.90;;;;;;8290833;28;20025;-74
2021/01/09 12:17:10;;;;;;;22.25;12.63;;;3.90;99.90;;;;;;8292788;28;20026;-71
2021/01/09 12:21:13;;;;;;;23.63;14.00;;;3.60;99.90;;;;;;8290170;28;20131;-71
2021/01/09 12:25:14;;;;;;;22.77;13.77;;;3.70;99.90;;;;;;8289677;28;20032;-68
2021/01/09 12:29:14;;;;;;;23.02;14.02;;;3.60;99.90;;;;;;8288797;28;20034;-69
2021/01/09 12:33:16;;;;;;;26.33;13.93;;;3.80;99.90;;;;;;8287877;28;20060;-69
2021/01/09 12:37:17;;;;;;;24.13;13.65;;;3.70;99.90;;;;;;8266802;28;20030;-71
2021/01/09 12:41:18;;;;;;;21.52;12.85;;;3.50;99.90;;;;;;8267314;28;20037;-67
2021/01/09 12:45:19;;;;;;;25.58;13.15;;;3.40;99.90;;;;;;8282793;28;20042;-72
2021/01/09 12:49:21;;;;;;;19.90;12.45;;;3.30;99.90;;;;;;8272257;28;20037;-73
2021/01/09 12:53:21;;;;;;;21.85;12.13;;;3.40;99.90;;;;;;8292160;28;20026;-71
2021/01/09 12:57:22;;;;;;;19.00;11.35;;;3.60;99.90;;;;;;8287865;28;20118;-69
2021/01/09 13:01:33;;;;;;;19.20;11.10;;;3.90;99.90;;;;;;8284150;28;20527;-69
2021/01/09 13:05:33;;;;;;;18.90;11.43;;;4.30;99.90;;;;;;8282883;28;20029;-70
2021/01/09 13:09:34;;;;;;;17.40;10.82;;;4.10;99.90;;;;;;8269750;28;20038;-68
2021/01/09 13:13:34;;;;;;;19.10;10.68;;;3.80;99.90;;;;;;8272120;28;20026;-69
2021/01/09 13:17:35;;;;;;;18.50;11.05;;;3.60;99.90;;;;;;8290687;28;20028;-67
2021/01/09 13:21:46;;;;;;;18.15;11.05;;;3.50;99.90;;;;;;8289889;28;20040;-67
2021/01/09 13:25:46;;;;;;;16.80;10.63;;;3.20;99.90;;;;;;8288106;28;20153;-67
2021/01/09 13:29:47;;;;;;;19.17;11.57;;;2.90;99.90;;;;;;8289787;28;20109;-67
2021/01/09 13:33:48;;;;;;;20.20;10.38;;;2.70;99.90;;;;;;8288723;28;20066;-67
2021/01/09 13:37:48;;;;;;;17.48;10.13;;;2.60;99.90;;;;;;8289137;28;20079;-66
2021/01/09 13:41:49;;;;;;;17.95;10.55;;;2.30;99.90;;;;;;8283331;28;20022;-68
2021/01/09 13:45:51;;;;;;;15.90;9.52;;;2.20;99.90;;;;;;8281889;28;20116;-69
2021/01/09 13:49:51;;;;;;;17.73;9.07;;;2.30;99.90;;;;;;8265368;28;20068;-70
2021/01/09 13:53:52;;;;;;;17.10;9.52;;;2.10;99.90;;;;;;8264003;28;20026;-70
2021/01/09 13:57:53;;;;;;;13.52;8.38;;;2.00;99.90;;;;;;8279825;28;20037;-69
2021/01/09 14:01:57;;;;;;;16.15;8.98;;;2.00;99.90;;;;;;8282959;28;20041;-69
2021/01/09 14:05:58;;;;;;;15.20;8.98;;;2.00;99.90;;;;;;8284831;28;20379;-70
2021/01/09 14:09:59;;;;;;;13.45;7.68;;;1.90;99.90;;;;;;8283799;28;20068;-69
2021/01/09 14:14:00;;;;;;;13.55;7.35;;;1.80;99.90;;;;;;8282977;28;20030;-70
2021/01/09 14:18:01;;;;;;;13.65;7.95;;;1.60;99.90;;;;;;8295700;28;20026;-69
2021/01/09 14:22:01;;;;;;;11.77;7.18;;;1.60;99.90;;;;;;8295586;28;20028;-67
2021/01/09 14:26:02;;;;;;;13.57;7.20;;;1.70;99.90;;;;;;8291582;28;20049;-68
2021/01/09 14:30:03;;;;;;;13.55;6.88;;;1.70;99.90;;;;;;8295890;28;20026;-70
2021/01/09 14:34:04;;;;;;;13.88;7.75;;;1.60;99.90;;;;;;8295652;28;20115;-70
2021/01/09 14:38:05;;;;;;;14.98;8.25;;;1.40;99.90;;;;;;8294243;28;20010;-68
2021/01/09 14:42:05;;;;;;;14.13;7.95;;;1.20;99.90;;;;;;8277665;28;20099;-69
2021/01/09 14:46:06;;;;;;;12.90;8.20;;;1.10;99.90;;;;;;8295435;28;20072;-69
2021/01/09 14:50:07;;;;;;;14.95;7.53;;;1.00;99.90;;;;;;8294083;28;20396;-68
2021/01/09 14:54:08;;;;;;;13.05;7.53;;;0.70;99.90;;;;;;8294002;28;20045;-71
2021/01/09 14:58:09;;;;;;;15.27;7.97;;;0.60;99.90;;;;;;8293713;28;20030;-72
2021/01/09 15:02:09;;;;;;;16.55;8.68;;;0.60;99.90;;;;;;8307618;28;20021;-71
2021/01/09 15:06:22;;;;;;;16.00;8.70;;;0.50;99.90;;;;;;8291621;28;20083;-72
2021/01/09 15:10:23;;;;;;;17.65;9.00;;;0.30;99.90;;;;;;8292203;28;20030;-71
2021/01/09 15:14:24;;;;;;;19.92;11.38;;;0.30;99.90;;;;;;8293860;28;20034;-71
2021/01/09 15:18:42;;;;;;;22.08;11.93;;;0.10;99.90;;;;;;8294030;28;20091;-71
2021/01/09 15:22:43;;;;;;;21.35;12.18;;;0.00;99.90;;;;;;8286938;28;20022;-72
2021/01/09 15:26:44;;;;;;;17.80;9.43;;;-0.20;99.90;;;;;;8274898;28;20018;-72
2021/01/09 15:30:45;;;;;;;19.92;10.27;;;-0.40;99.90;;;;;;8293851;28;20538;-71
2021/01/09 15:34:45;;;;;;;19.25;10.15;;;-0.40;99.90;;;;;;8276202;28;20025;-71
2021/01/09 15:38:46;;;;;;;21.63;10.63;;;-0.50;99.90;;;;;;8293862;28;20431;-71
2021/01/09 15:42:48;;;;;;;21.10;10.02;;;-0.60;99.90;;;;;;8293195;28;20022;-70
2021/01/09 15:46:49;;;;;;;24.23;12.25;;;-0.70;99.90;;;;;;8291724;28;20132;-70
2021/01/09 15:50:58;;;;;;;23.05;12.15;;;-0.70;99.90;;;;;;8290753;28;20022;-70
2021/01/09 15:54:58;;;;;;;25.63;12.27;;;-0.90;99.90;;;;;;8290832;28;20018;-69
2021/01/09 15:58:59;;;;;;;24.88;12.13;;;-0.90;99.90;;;;;;8275058;28;20049;-69
2021/01/09 16:02:59;;;;;;;26.77;11.90;;;-0.90;99.90;;;;;;8275330;28;20480;-69
2021/01/09 16:07:01;;;;;;;28.10;13.70;;;-0.90;99.90;;;;;;8292702;28;20037;-70
2021/01/09 16:11:02;;;;;;;27.52;14.00;;;-0.80;99.90;;;;;;8275608;28;20111;-70
2021/01/09 16:15:03;;;;;;;26.13;13.45;;;-0.70;99.90;;;;;;8291837;28;20032;-70
2021/01/09 16:19:05;;;;;;;36.42;18.20;;;-0.80;99.90;;;;;;8275874;28;20026;-70
2021/01/09 16:23:06;;;;;;;29.92;14.82;;;-0.80;99.90;;;;;;8274085;28;20397;-70
2021/01/09 16:27:09;;;;;;;40.28;21.48;;;-1.10;99.90;;;;;;8285603;28;20034;-70
2021/01/09 16:31:11;;;;;;;36.72;17.13;;;-1.30;99.90;;;;;;8270777;28;20543;-69
2021/01/09 16:35:13;;;;;;;51.28;22.05;;;-1.50;99.90;;;;;;8287593;28;20030;-69
2021/01/09 16:39:14;;;;;;;38.35;17.75;;;-1.50;99.90;;;;;;8270515;28;20034;-69
2021/01/09 16:43:14;;;;;;;31.50;15.75;;;-1.60;99.90;;;;;;8283384;28;20034;-69
2021/01/09 16:47:15;;;;;;;30.42;14.27;;;-1.80;99.90;;;;;;8268774;28;20057;-69
2021/01/09 16:51:19;;;;;;;30.23;14.75;;;-1.80;99.90;;;;;;8280545;28;20045;-70
2021/01/09 16:55:20;;;;;;;32.38;13.98;;;-2.00;99.90;;;;;;8270554;28;20108;-70
2021/01/09 16:59:21;;;;;;;30.73;13.77;;;-2.20;99.90;;;;;;8285858;28;20083;-69
2021/01/09 17:03:22;;;;;;;28.15;13.43;;;-2.40;99.90;;;;;;8270382;28;20034;-71
2021/01/09 17:07:22;;;;;;;32.80;14.80;;;-2.30;99.90;;;;;;8288614;28;20045;-71
2021/01/09 17:11:23;;;;;;;27.33;13.18;;;-2.30;99.90;;;;;;8287079;28;20068;-71
2021/01/09 17:15:24;;;;;;;28.52;12.88;;;-2.40;99.90;;;;;;8288057;28;20113;-71
2021/01/09 17:19:26;;;;;;;28.05;12.50;;;-2.30;99.90;;;;;;8287111;28;20548;-71
2021/01/09 17:23:27;;;;;;;27.33;12.88;;;-2.00;99.90;;;;;;8269090;28;20042;-71
2021/01/09 17:27:28;;;;;;;28.95;12.85;;;-1.80;99.90;;;;;;8268605;28;20045;-71
2021/01/09 17:31:35;;;;;;;29.88;12.80;;;-1.60;99.90;;;;;;8268648;28;20712;-71
2021/01/09 17:35:37;;;;;;;30.02;12.70;;;-1.60;99.90;;;;;;8287985;28;20026;-71
2021/01/09 17:39:38;;;;;;;28.10;12.13;;;-1.60;99.90;;;;;;8287898;28;20037;-71
2021/01/09 17:43:39;;;;;;;30.52;12.52;;;-1.60;99.90;;;;;;8287415;28;20506;-71
2021/01/09 17:47:40;;;;;;;27.45;12.18;;;-1.60;99.90;;;;;;8270121;28;20029;-71
2021/01/09 17:51:47;;;;;;;31.48;13.32;;;-1.50;99.90;;;;;;8293197;28;20084;-75
2021/01/09 17:55:52;;;;;;;27.92;12.95;;;-1.50;99.90;;;;;;8298202;28;20079;-71
2021/01/09 17:59:53;;;;;;;28.23;12.23;;;-1.40;99.90;;;;;;8294132;28;20025;-71
2021/01/09 18:03:54;;;;;;;23.75;12.30;;;-1.30;99.90;;;;;;8275881;28;20033;-71
2021/01/09 18:07:55;;;;;;;31.83;14.18;;;-1.20;99.90;;;;;;8294160;28;20127;-71
2021/01/09 18:11:58;;;;;;;29.30;12.38;;;-1.10;99.90;;;;;;8292831;28;20104;-71
2021/01/09 18:15:59;;;;;;;28.52;12.93;;;-1.30;99.90;;;;;;8290933;28;20030;-71
2021/01/09 18:20:00;;;;;;;25.52;11.43;;;-1.40;99.90;;;;;;8277004;28;20037;-71
2021/01/09 18:24:00;;;;;;;25.35;12.32;;;-1.30;99.90;;;;;;8294041;28;20121;-71
2021/01/09 18:28:01;;;;;;;27.92;12.63;;;-1.40;99.90;;;;;;8295010;28;20033;-71
2021/01/09 18:32:08;;;;;;;28.88;13.25;;;-1.30;99.90;;;;;;8294854;28;20026;-71
2021/01/09 18:36:09;;;;;;;25.10;12.52;;;-1.20;99.90;;;;;;8275472;28;20018;-71
2021/01/09 18:40:10;;;;;;;79.97;25.27;;;-1.10;99.90;;;;;;8274559;28;20030;-71
2021/01/09 18:44:11;;;;;;;137.55;42.10;;;-0.90;99.90;;;;;;8273964;28;20030;-71
2021/01/09 18:48:13;;;;;;;36.42;15.13;;;-1.10;99.90;;;;;;8292664;28;20033;-71
2021/01/09 18:52:15;;;;;;;28.67;13.32;;;-1.10;99.90;;;;;;8293046;28;20030;-71
2021/01/09 18:56:18;;;;;;;26.40;12.13;;;-1.10;99.90;;;;;;8284695;28;20053;-71
2021/01/09 19:00:19;;;;;;;28.67;13.80;;;-1.10;99.90;;;;;;8277498;28;20123;-71
2021/01/09 19:04:19;;;;;;;31.70;15.13;;;-1.20;99.90;;;;;;8286471;28;20033;-71
2021/01/09 19:08:20;;;;;;;38.92;17.08;;;-1.20;99.90;;;;;;8286960;28;20057;-71
2021/01/09 19:12:20;;;;;;;31.00;13.80;;;-1.20;99.90;;;;;;8288145;28;20110;-71
2021/01/09 19:16:27;;;;;;;28.20;13.25;;;-1.20;99.90;;;;;;8287816;28;20045;-71
2021/01/09 19:20:29;;;;;;;26.73;12.65;;;-1.20;99.90;;;;;;8285554;28;20034;-72
2021/01/09 19:24:30;;;;;;;26.95;12.95;;;-1.10;99.90;;;;;;8285763;28;20118;-71
2021/01/09 19:28:31;;;;;;;28.63;13.98;;;-1.30;99.90;;;;;;8289251;28;20037;-71
2021/01/09 19:32:31;;;;;;;56.38;39.03;;;-1.50;99.90;;;;;;8287791;28;20025;-71
2021/01/09 19:36:32;;;;;;;35.38;20.52;;;-1.70;99.90;;;;;;8284588;28;20025;-71
2021/01/09 19:40:33;;;;;;;30.58;14.73;;;-2.10;99.90;;;;;;8287621;28;20632;-71
2021/01/09 19:44:33;;;;;;;28.88;15.18;;;-2.40;99.90;;;;;;8288769;28;20029;-70
2021/01/09 19:48:34;;;;;;;26.33;12.48;;;-2.50;99.90;;;;;;8287402;28;20026;-71
2021/01/09 19:52:35;;;;;;;29.42;12.95;;;-2.80;99.90;;;;;;8288735;28;20635;-72
2021/01/09 19:56:39;;;;;;;26.30;12.02;;;-2.80;99.90;;;;;;8269583;28;20038;-70
2021/01/09 20:00:39;;;;;;;24.15;11.18;;;-3.00;99.90;;;;;;8285332;28;20026;-71
2021/01/09 20:04:40;;;;;;;22.83;11.50;;;-3.20;99.90;;;;;;8286928;28;21414;-71
2021/01/09 20:08:41;;;;;;;27.33;12.05;;;-3.30;99.90;;;;;;8285599;28;20047;-71
2021/01/09 20:12:42;;;;;;;30.40;12.38;;;-3.50;99.90;;;;;;8283832;28;20105;-71
2021/01/09 20:16:43;;;;;;;24.10;10.82;;;-3.60;99.90;;;;;;8285406;28;20030;-71
2021/01/09 20:20:43;;;;;;;23.38;10.93;;;-3.60;99.90;;;;;;8287907;28;20448;-71
2021/01/09 20:24:44;;;;;;;26.30;11.95;;;-3.60;99.90;;;;;;8274870;28;20115;-71
2021/01/09 20:28:45;;;;;;;27.05;12.25;;;-3.40;99.90;;;;;;8288190;28;20034;-70
2021/01/09 20:32:46;;;;;;;27.63;11.77;;;-3.20;99.90;;;;;;8286944;28;20029;-70